sensor_id;sensor_type;location;lat;lon;timestamp;pressure;altitude;pressure_sealevel;temperature;humidity
75460;BME280;64039;53.060;9.342;2023-07-13T00:01:12;100885.28;;;14.84;100.00
75460;BME280;64039;53.060;9.342;2023-07-13T00:03:38;100885.22;;;14.70;100.00
75460;BME280;64039;53.060;9.342;2023-07-13T00:06:07;100889.56;;;14.70;100.00
75460;BME280;64039;53.060;9.342;2023-07-13T00:08:33;100893.09;;;14.75;100.00
75460;BME280;64039;53.060;9.342;2023-07-13T00:11:00;100888.66;;;14.63;100.00
75460;BME280;64039;53.060;9.342;2023-07-13T00:13:26;100889.56;;;14.68;100.00
75460;BME280;64039;53.060;9.342;2023-07-13T00:15:52;100889.56;;;14.70;100.00
75460;BME280;64039;53.060;9.342;2023-07-13T00:18:20;100893.00;;;14.62;100.00
75460;BME280;64039;53.060;9.342;2023-07-13T00:20:46;100888.59;;;14.57;100.00
75460;BME280;64039;53.060;9.342;2023-07-13T00:23:11;100896.41;;;14.49;100.00
75460;BME280;64039;53.060;9.342;2023-07-13T00:25:37;100894.59;;;14.39;100.00
75460;BME280;64039;53.060;9.342;2023-07-13T00:28:02;100897.97;;;14.22;100.00
75460;BME280;64039;53.060;9.342;2023-07-13T00:30:28;100900.56;;;14.18;100.00
75460;BME280;64039;53.060;9.342;2023-07-13T00:32:53;100904.03;;;14.17;100.00
75460;BME280;64039;53.060;9.342;2023-07-13T00:35:19;100907.50;;;14.14;100.00
75460;BME280;64039;53.060;9.342;2023-07-13T00:37:45;100909.28;;;14.13;100.00
75460;BME280;64039;53.060;9.342;2023-07-13T00:40:12;100903.06;;;14.01;100.00
75460;BME280;64039;53.060;9.342;2023-07-13T00:42:38;100899.63;;;14.09;100.00
75460;BME280;64039;53.060;9.342;2023-07-13T00:47:30;100918.81;;;14.08;100.00
75460;BME280;64039;53.060;9.342;2023-07-13T00:49:56;100923.88;;;13.87;100.00
75460;BME280;64039;53.060;9.342;2023-07-13T00:52:21;100917.88;;;14.00;100.00
75460;BME280;64039;53.060;9.342;2023-07-13T00:54:47;100918.69;;;13.94;100.00
75460;BME280;64039;53.060;9.342;2023-07-13T00:57:19;100921.34;;;13.97;100.00
75460;BME280;64039;53.060;9.342;2023-07-13T00:59:46;100917.00;;;13.99;100.00
75460;BME280;64039;53.060;9.342;2023-07-13T01:02:12;100914.38;;;14.03;100.00
75460;BME280;64039;53.060;9.342;2023-07-13T01:04:38;100919.53;;;13.92;100.00
75460;BME280;64039;53.060;9.342;2023-07-13T01:07:04;100923.88;;;13.88;100.00
75460;BME280;64039;53.060;9.342;2023-07-13T01:09:31;100917.66;;;13.77;100.00
75460;BME280;64039;53.060;9.342;2023-07-13T01:11:56;100917.63;;;13.75;100.00
75460;BME280;64039;53.060;9.342;2023-07-13T01:14:22;100920.16;;;13.63;100.00
75460;BME280;64039;53.060;9.342;2023-07-13T01:16:48;100922.69;;;13.57;100.00
75460;BME280;64039;53.060;9.342;2023-07-13T01:21:52;100925.34;;;13.60;100.00
75460;BME280;64039;53.060;9.342;2023-07-13T01:24:18;100918.41;;;13.63;100.00
75460;BME280;64039;53.060;9.342;2023-07-13T01:26:43;100915.78;;;13.62;100.00
75460;BME280;64039;53.060;9.342;2023-07-13T01:29:09;100914.06;;;13.65;100.00
75460;BME280;64039;53.060;9.342;2023-07-13T01:31:34;100914.88;;;13.58;100.00
75460;BME280;64039;53.060;9.342;2023-07-13T01:34:00;100907.97;;;13.68;100.00
75460;BME280;64039;53.060;9.342;2023-07-13T01:36:25;100907.19;;;13.77;100.00
75460;BME280;64039;53.060;9.342;2023-07-13T01:38:51;100909.59;;;13.55;100.00
75460;BME280;64039;53.060;9.342;2023-07-13T01:41:16;100903.56;;;13.59;100.00
75460;BME280;64039;53.060;9.342;2023-07-13T01:43:42;100905.97;;;13.44;100.00
75460;BME280;64039;53.060;9.342;2023-07-13T01:46:07;100907.84;;;13.54;100.00
75460;BME280;64039;53.060;9.342;2023-07-13T01:48:33;100912.09;;;13.44;100.00
75460;BME280;64039;53.060;9.342;2023-07-13T01:50:59;100906.03;;;13.47;100.00
75460;BME280;64039;53.060;9.342;2023-07-13T01:53:25;100899.94;;;13.48;100.00
75460;BME280;64039;53.060;9.342;2023-07-13T01:55:50;100903.41;;;13.45;100.00
75460;BME280;64039;53.060;9.342;2023-07-13T01:58:16;100899.09;;;13.52;100.00
75460;BME280;64039;53.060;9.342;2023-07-13T02:00:41;100900.75;;;13.42;100.00
75460;BME280;64039;53.060;9.342;2023-07-13T02:03:06;100895.66;;;13.56;100.00
75460;BME280;64039;53.060;9.342;2023-07-13T02:05:32;100892.16;;;13.52;100.00
75460;BME280;64039;53.060;9.342;2023-07-13T02:07:57;100900.78;;;13.45;100.00
75460;BME280;64039;53.060;9.342;2023-07-13T02:10:23;100900.59;;;13.31;100.00
75460;BME280;64039;53.060;9.342;2023-07-13T02:12:49;100905.88;;;13.36;100.00
75460;BME280;64039;53.060;9.342;2023-07-13T02:15:15;100900.69;;;13.39;100.00
75460;BME280;64039;53.060;9.342;2023-07-13T02:17:41;100904.13;;;13.33;100.00
75460;BME280;64039;53.060;9.342;2023-07-13T02:20:07;100908.50;;;13.37;100.00
75460;BME280;64039;53.060;9.342;2023-07-13T02:22:33;100909.44;;;13.41;100.00
75460;BME280;64039;53.060;9.342;2023-07-13T02:24:58;100909.47;;;13.43;100.00
75460;BME280;64039;53.060;9.342;2023-07-13T02:27:24;100912.97;;;13.45;100.00
75460;BME280;64039;53.060;9.342;2023-07-13T02:29:49;100906.88;;;13.47;100.00
75460;BME280;64039;53.060;9.342;2023-07-13T02:32:17;100904.28;;;13.47;100.00
75460;BME280;64039;53.060;9.342;2023-07-13T02:34:43;100907.78;;;13.49;100.00
75460;BME280;64039;53.060;9.342;2023-07-13T02:37:08;100908.59;;;13.44;100.00
75460;BME280;64039;53.060;9.342;2023-07-13T02:39:34;100913.94;;;13.53;100.00
75460;BME280;64039;53.060;9.342;2023-07-13T02:42:00;100912.13;;;13.47;100.00
75460;BME280;64039;53.060;9.342;2023-07-13T02:44:25;100916.47;;;13.47;100.00
75460;BME280;64039;53.060;9.342;2023-07-13T02:46:51;100913.63;;;13.28;100.00
75460;BME280;64039;53.060;9.342;2023-07-13T02:49:16;100912.81;;;13.34;100.00
75460;BME280;64039;53.060;9.342;2023-07-13T02:51:42;100908.50;;;13.36;100.00
75460;BME280;64039;53.060;9.342;2023-07-13T02:54:08;100910.34;;;13.45;100.00
75460;BME280;64039;53.060;9.342;2023-07-13T02:56:34;100909.34;;;13.36;100.00
75460;BME280;64039;53.060;9.342;2023-07-13T02:58:59;100917.19;;;13.33;100.00
75460;BME280;64039;53.060;9.342;2023-07-13T03:01:25;100920.84;;;13.48;100.00
75460;BME280;64039;53.060;9.342;2023-07-13T03:03:51;100926.09;;;13.46;100.00
75460;BME280;64039;53.060;9.342;2023-07-13T03:06:18;100927.78;;;13.46;100.00
75460;BME280;64039;53.060;9.342;2023-07-13T03:08:43;100917.19;;;13.36;100.00
75460;BME280;64039;53.060;9.342;2023-07-13T03:11:12;100918.91;;;13.33;100.00
75460;BME280;64039;53.060;9.342;2023-07-13T03:13:39;100916.47;;;13.47;100.00
75460;BME280;64039;53.060;9.342;2023-07-13T03:16:05;100917.34;;;13.46;100.00
75460;BME280;64039;53.060;9.342;2023-07-13T03:18:31;100919.94;;;13.44;100.00
75460;BME280;64039;53.060;9.342;2023-07-13T03:20:56;100921.75;;;13.50;100.00
75460;BME280;64039;53.060;9.342;2023-07-13T03:23:22;100918.31;;;13.54;100.00
75460;BME280;64039;53.060;9.342;2023-07-13T03:25:48;100923.50;;;13.51;100.00
75460;BME280;64039;53.060;9.342;2023-07-13T03:28:15;100923.56;;;13.56;100.00
75460;BME280;64039;53.060;9.342;2023-07-13T03:30:41;100920.06;;;13.57;100.00
75460;BME280;64039;53.060;9.342;2023-07-13T03:33:06;100930.56;;;13.58;100.00
75460;BME280;64039;53.060;9.342;2023-07-13T03:35:32;100922.72;;;13.58;100.00
75460;BME280;64039;53.060;9.342;2023-07-13T03:37:58;100921.06;;;13.66;100.00
75460;BME280;64039;53.060;9.342;2023-07-13T03:40:25;100925.34;;;13.60;100.00
75460;BME280;64039;53.060;9.342;2023-07-13T03:42:51;100922.78;;;13.66;100.00
75460;BME280;64039;53.060;9.342;2023-07-13T03:45:17;100928.00;;;13.63;100.00
75460;BME280;64039;53.060;9.342;2023-07-13T03:47:42;100935.03;;;13.72;100.00
75460;BME280;64039;53.060;9.342;2023-07-13T03:50:08;100933.34;;;13.74;100.00
75460;BME280;64039;53.060;9.342;2023-07-13T03:52:34;100928.06;;;13.71;100.00
75460;BME280;64039;53.060;9.342;2023-07-13T03:54:59;100933.28;;;13.69;100.00
75460;BME280;64039;53.060;9.342;2023-07-13T03:57:25;100935.00;;;13.65;100.00
75460;BME280;64039;53.060;9.342;2023-07-13T03:59:51;100939.38;;;13.68;100.00
75460;BME280;64039;53.060;9.342;2023-07-13T04:02:16;100947.41;;;13.87;100.00
75460;BME280;64039;53.060;9.342;2023-07-13T04:04:43;100944.78;;;13.87;100.00
75460;BME280;64039;53.060;9.342;2023-07-13T04:07:08;100943.03;;;13.87;100.00
75460;BME280;64039;53.060;9.342;2023-07-13T04:09:35;100943.13;;;13.98;100.00
75460;BME280;64039;53.060;9.342;2023-07-13T04:12:00;100945.78;;;14.03;100.00
75460;BME280;64039;53.060;9.342;2023-07-13T04:14:26;100945.88;;;14.10;100.00
75460;BME280;64039;53.060;9.342;2023-07-13T04:16:51;100944.25;;;14.23;100.00
75460;BME280;64039;53.060;9.342;2023-07-13T04:19:17;100944.25;;;14.22;100.00
75460;BME280;64039;53.060;9.342;2023-07-13T04:21:42;100937.28;;;14.28;100.00
75460;BME280;64039;53.060;9.342;2023-07-13T04:24:08;100943.47;;;14.37;100.00
75460;BME280;64039;53.060;9.342;2023-07-13T04:26:34;100935.59;;;14.35;100.00
75460;BME280;64039;53.060;9.342;2023-07-13T04:29:01;100942.63;;;14.42;100.00
75460;BME280;64039;53.060;9.342;2023-07-13T04:31:28;100940.94;;;14.49;100.00
75460;BME280;64039;53.060;9.342;2023-07-13T04:33:53;100945.38;;;14.62;100.00
75460;BME280;64039;53.060;9.342;2023-07-13T04:36:19;100943.59;;;14.57;100.00
75460;BME280;64039;53.060;9.342;2023-07-13T04:38:45;100948.97;;;14.68;100.00
75460;BME280;64039;53.060;9.342;2023-07-13T04:41:11;100951.59;;;14.69;100.00
75460;BME280;64039;53.060;9.342;2023-07-13T04:43:37;100945.47;;;14.69;100.00
75460;BME280;64039;53.060;9.342;2023-07-13T04:46:08;100954.22;;;14.72;100.00
75460;BME280;64039;53.060;9.342;2023-07-13T04:48:35;100947.94;;;14.50;100.00
75460;BME280;64039;53.060;9.342;2023-07-13T04:51:01;100956.78;;;14.66;100.00
75460;BME280;64039;53.060;9.342;2023-07-13T04:53:27;100959.47;;;14.75;100.00
75460;BME280;64039;53.060;9.342;2023-07-13T04:55:53;100965.63;;;14.81;100.00
75460;BME280;64039;53.060;9.342;2023-07-13T04:58:19;100959.38;;;14.65;100.00
75460;BME280;64039;53.060;9.342;2023-07-13T05:00:44;100957.63;;;14.65;100.00
75460;BME280;64039;53.060;9.342;2023-07-13T05:03:10;100959.50;;;14.78;100.00
75460;BME280;64039;53.060;9.342;2023-07-13T05:05:35;100964.75;;;14.82;100.00
75460;BME280;64039;53.060;9.342;2023-07-13T05:08:01;100961.31;;;14.90;100.00
75460;BME280;64039;53.060;9.342;2023-07-13T05:10:27;100964.81;;;14.91;100.00
75460;BME280;64039;53.060;9.342;2023-07-13T05:12:52;100963.03;;;14.88;100.00
75460;BME280;64039;53.060;9.342;2023-07-13T05:15:20;100968.31;;;14.93;100.00
75460;BME280;64039;53.060;9.342;2023-07-13T05:17:47;100964.84;;;14.99;100.00
75460;BME280;64039;53.060;9.342;2023-07-13T05:20:13;100972.72;;;15.00;100.00
75460;BME280;64039;53.060;9.342;2023-07-13T05:22:38;100967.53;;;15.11;100.00
75460;BME280;64039;53.060;9.342;2023-07-13T05:25:05;100967.53;;;15.09;100.00
75460;BME280;64039;53.060;9.342;2023-07-13T05:27:31;100971.06;;;15.18;100.00
75460;BME280;64039;53.060;9.342;2023-07-13T05:29:57;100973.72;;;15.22;100.00
75460;BME280;64039;53.060;9.342;2023-07-13T05:32:22;100963.31;;;15.46;100.00
75460;BME280;64039;53.060;9.342;2023-07-13T05:34:48;100972.06;;;15.55;100.00
75460;BME280;64039;53.060;9.342;2023-07-13T05:37:13;100973.00;;;15.65;100.00
75460;BME280;64039;53.060;9.342;2023-07-13T05:39:39;100966.91;;;15.82;100.00
75460;BME280;64039;53.060;9.342;2023-07-13T05:42:05;100962.59;;;16.01;100.00
75460;BME280;64039;53.060;9.342;2023-07-13T05:44:30;100971.38;;;16.14;100.00
75460;BME280;64039;53.060;9.342;2023-07-13T05:46:56;100970.50;;;16.19;100.00
75460;BME280;64039;53.060;9.342;2023-07-13T05:49:22;100975.75;;;16.10;100.00
75460;BME280;64039;53.060;9.342;2023-07-13T05:51:47;100986.25;;;16.15;100.00
75460;BME280;64039;53.060;9.342;2023-07-13T05:54:13;100982.72;;;16.03;100.00
75460;BME280;64039;53.060;9.342;2023-07-13T05:56:38;100980.97;;;15.92;100.00
75460;BME280;64039;53.060;9.342;2023-07-13T05:59:04;100982.72;;;15.97;100.00
75460;BME280;64039;53.060;9.342;2023-07-13T06:01:30;100995.78;;;15.82;100.00
75460;BME280;64039;53.060;9.342;2023-07-13T06:03:56;100999.25;;;15.78;100.00
75460;BME280;64039;53.060;9.342;2023-07-13T06:06:21;100990.59;;;16.00;100.00
75460;BME280;64039;53.060;9.342;2023-07-13T06:08:47;100991.50;;;16.21;100.00
75460;BME280;64039;53.060;9.342;2023-07-13T06:11:19;100984.50;;;16.25;100.00
75460;BME280;64039;53.060;9.342;2023-07-13T06:13:45;100993.22;;;16.55;100.00
75460;BME280;64039;53.060;9.342;2023-07-13T06:16:11;101003.75;;;16.28;100.00
75460;BME280;64039;53.060;9.342;2023-07-13T06:18:37;101003.75;;;16.42;100.00
75460;BME280;64039;53.060;9.342;2023-07-13T06:21:12;101000.25;;;16.54;100.00
75460;BME280;64039;53.060;9.342;2023-07-13T06:23:38;101002.88;;;16.31;100.00
75460;BME280;64039;53.060;9.342;2023-07-13T06:26:04;101007.28;;;16.44;100.00
75460;BME280;64039;53.060;9.342;2023-07-13T06:28:31;101009.88;;;16.43;100.00
75460;BME280;64039;53.060;9.342;2023-07-13T06:31:00;101012.50;;;16.61;100.00
75460;BME280;64039;53.060;9.342;2023-07-13T06:33:26;101012.53;;;16.54;100.00
75460;BME280;64039;53.060;9.342;2023-07-13T06:35:51;101009.91;;;16.49;100.00
75460;BME280;64039;53.060;9.342;2023-07-13T06:38:17;101001.13;;;16.44;100.00
75460;BME280;64039;53.060;9.342;2023-07-13T06:40:42;101002.00;;;16.43;100.00
75460;BME280;64039;53.060;9.342;2023-07-13T06:43:08;101001.13;;;16.56;100.00
75460;BME280;64039;53.060;9.342;2023-07-13T06:45:40;100998.47;;;16.76;100.00
75460;BME280;64039;53.060;9.342;2023-07-13T06:48:06;101000.22;;;16.77;100.00
75460;BME280;64039;53.060;9.342;2023-07-13T06:50:33;101001.09;;;16.73;100.00
75460;BME280;64039;53.060;9.342;2023-07-13T06:52:59;101003.75;;;16.72;100.00
75460;BME280;64039;53.060;9.342;2023-07-13T06:55:25;101003.72;;;16.69;100.00
75460;BME280;64039;53.060;9.342;2023-07-13T06:57:51;101011.59;;;16.78;100.00
75460;BME280;64039;53.060;9.342;2023-07-13T07:00:17;101016.88;;;16.67;100.00
75460;BME280;64039;53.060;9.342;2023-07-13T07:02:42;101009.84;;;16.85;100.00
75460;BME280;64039;53.060;9.342;2023-07-13T07:05:08;101017.75;;;17.08;100.00
75460;BME280;64039;53.060;9.342;2023-07-13T07:07:33;101022.09;;;17.15;100.00
75460;BME280;64039;53.060;9.342;2023-07-13T07:09:59;101008.97;;;16.87;100.00
75460;BME280;64039;53.060;9.342;2023-07-13T07:12:24;101011.59;;;16.79;100.00
75460;BME280;64039;53.060;9.342;2023-07-13T07:14:50;101023.81;;;17.24;100.00
75460;BME280;64039;53.060;9.342;2023-07-13T07:17:15;101016.00;;;16.91;100.00
75460;BME280;64039;53.060;9.342;2023-07-13T07:19:41;101010.63;;;17.25;100.00
75460;BME280;64039;53.060;9.342;2023-07-13T07:22:06;101022.06;;;17.29;100.00
75460;BME280;64039;53.060;9.342;2023-07-13T07:24:32;101022.94;;;17.22;100.00
75460;BME280;64039;53.060;9.342;2023-07-13T07:26:57;101007.88;;;17.59;100.00
75460;BME280;64039;53.060;9.342;2023-07-13T07:29:23;101023.59;;;17.78;100.00
75460;BME280;64039;53.060;9.342;2023-07-13T07:31:51;101019.28;;;17.60;100.00
75460;BME280;64039;53.060;9.342;2023-07-13T07:34:17;101027.16;;;17.66;100.00
75460;BME280;64039;53.060;9.342;2023-07-13T07:36:42;101009.56;;;17.74;100.00
75460;BME280;64039;53.060;9.342;2023-07-13T07:39:08;101019.28;;;17.62;100.00
75460;BME280;64039;53.060;9.342;2023-07-13T07:41:33;101018.25;;;17.90;100.00
75460;BME280;64039;53.060;9.342;2023-07-13T07:43:58;101018.97;;;18.17;100.00
75460;BME280;64039;53.060;9.342;2023-07-13T07:46:24;101013.53;;;18.41;100.00
75460;BME280;64039;53.060;9.342;2023-07-13T07:48:49;101004.69;;;18.48;100.00
75460;BME280;64039;53.060;9.342;2023-07-13T07:51:15;101006.56;;;18.36;100.00
75460;BME280;64039;53.060;9.342;2023-07-13T07:53:40;101003.91;;;18.36;100.00
75460;BME280;64039;53.060;9.342;2023-07-13T07:56:06;101003.03;;;18.36;100.00
75460;BME280;64039;53.060;9.342;2023-07-13T07:58:31;101007.09;;;18.73;100.00
75460;BME280;64039;53.060;9.342;2023-07-13T08:01:04;101007.81;;;18.92;100.00
75460;BME280;64039;53.060;9.342;2023-07-13T08:03:30;101014.59;;;19.17;100.00
75460;BME280;64039;53.060;9.342;2023-07-13T08:05:55;101007.59;;;19.13;100.00
75460;BME280;64039;53.060;9.342;2023-07-13T08:08:20;101017.19;;;19.21;100.00
75460;BME280;64039;53.060;9.342;2023-07-13T08:10:46;101023.94;;;19.45;100.00
75460;BME280;64039;53.060;9.342;2023-07-13T08:13:11;101011.91;;;19.22;100.00
75460;BME280;64039;53.060;9.342;2023-07-13T08:15:37;101021.25;;;19.48;98.60
75460;BME280;64039;53.060;9.342;2023-07-13T08:18:02;101019.81;;;19.22;100.00
75460;BME280;64039;53.060;9.342;2023-07-13T08:20:28;101010.84;;;19.36;97.89
75460;BME280;64039;53.060;9.342;2023-07-13T08:22:53;101011.22;;;19.75;97.45
75460;BME280;64039;53.060;9.342;2023-07-13T08:25:19;101017.59;;;19.60;95.57
75460;BME280;64039;53.060;9.342;2023-07-13T08:27:45;101027.81;;;19.89;95.83
75460;BME280;64039;53.060;9.342;2023-07-13T08:30:11;101024.84;;;19.41;97.68
75460;BME280;64039;53.060;9.342;2023-07-13T08:32:37;101032.53;;;19.61;97.69
75460;BME280;64039;53.060;9.342;2023-07-13T08:35:03;101021.06;;;19.63;99.60
75460;BME280;64039;53.060;9.342;2023-07-13T08:37:29;101035.03;;;19.73;98.53
75460;BME280;64039;53.060;9.342;2023-07-13T08:39:54;101033.81;;;19.30;100.00
75460;BME280;64039;53.060;9.342;2023-07-13T08:42:30;101031.41;;;19.06;100.00
75460;BME280;64039;53.060;9.342;2023-07-13T08:45:20;101029.25;;;19.42;99.37
75460;BME280;64039;53.060;9.342;2023-07-13T08:48:09;101021.28;;;19.46;100.00
75460;BME280;64039;53.060;9.342;2023-07-13T08:50:51;101032.66;;;19.50;99.77
75460;BME280;64039;53.060;9.342;2023-07-13T08:53:21;101036.59;;;19.15;97.05
75460;BME280;64039;53.060;9.342;2023-07-13T08:55:58;101034.06;;;19.04;98.69
75460;BME280;64039;53.060;9.342;2023-07-13T08:58:25;101030.84;;;18.74;100.00
75460;BME280;64039;53.060;9.342;2023-07-13T09:04:14;101034.03;;;19.09;97.31
75460;BME280;64039;53.060;9.342;2023-07-13T09:09:34;101041.78;;;19.23;94.80
75460;BME280;64039;53.060;9.342;2023-07-13T09:12:10;101039.59;;;19.60;93.75
75460;BME280;64039;53.060;9.342;2023-07-13T09:14:53;101031.47;;;19.76;94.03
75460;BME280;64039;53.060;9.342;2023-07-13T09:17:46;101039.44;;;19.71;90.01
75460;BME280;64039;53.060;9.342;2023-07-13T09:20:20;101042.13;;;19.70;92.09
75460;BME280;64039;53.060;9.342;2023-07-13T09:22:48;101039.06;;;20.01;91.93
75460;BME280;64039;53.060;9.342;2023-07-13T09:25:29;101042.41;;;20.14;88.61
75460;BME280;64039;53.060;9.342;2023-07-13T09:28:00;101037.16;;;20.10;88.37
75460;BME280;64039;53.060;9.342;2023-07-13T09:30:38;101045.38;;;20.48;88.71
75460;BME280;64039;53.060;9.342;2023-07-13T09:33:05;101047.69;;;20.73;87.26
75460;BME280;64039;53.060;9.342;2023-07-13T09:35:31;101041.56;;;20.66;86.31
75460;BME280;64039;53.060;9.342;2023-07-13T09:38:21;101037.75;;;20.86;84.31
75460;BME280;64039;53.060;9.342;2023-07-13T09:43:20;101035.84;;;20.94;84.25
75460;BME280;64039;53.060;9.342;2023-07-13T09:45:47;101029.91;;;20.80;82.90
75460;BME280;64039;53.060;9.342;2023-07-13T09:48:15;101030.25;;;21.08;82.67
75460;BME280;64039;53.060;9.342;2023-07-13T09:50:42;101033.28;;;20.88;80.46
75460;BME280;64039;53.060;9.342;2023-07-13T09:53:19;101038.75;;;21.26;81.74
75460;BME280;64039;53.060;9.342;2023-07-13T09:55:46;101042.97;;;21.36;80.83
75460;BME280;64039;53.060;9.342;2023-07-13T09:58:15;101033.72;;;21.12;80.26
75460;BME280;64039;53.060;9.342;2023-07-13T10:00:43;101042.09;;;21.35;76.46
75460;BME280;64039;53.060;9.342;2023-07-13T10:03:20;101034.66;;;21.11;76.81
75460;BME280;64039;53.060;9.342;2023-07-13T10:05:49;101034.38;;;21.23;75.88
75460;BME280;64039;53.060;9.342;2023-07-13T10:08:21;101034.44;;;21.20;76.20
75460;BME280;64039;53.060;9.342;2023-07-13T10:10:53;101031.69;;;21.25;72.76
75460;BME280;64039;53.060;9.342;2023-07-13T10:13:33;101034.97;;;20.92;78.90
75460;BME280;64039;53.060;9.342;2023-07-13T10:16:02;101044.63;;;20.40;80.48
75460;BME280;64039;53.060;9.342;2023-07-13T10:18:43;101045.88;;;20.19;78.17
75460;BME280;64039;53.060;9.342;2023-07-13T10:21:18;101043.66;;;20.47;78.56
75460;BME280;64039;53.060;9.342;2023-07-13T10:23:52;101047.66;;;20.71;80.31
75460;BME280;64039;53.060;9.342;2023-07-13T10:26:25;101044.34;;;21.10;77.02
75460;BME280;64039;53.060;9.342;2023-07-13T10:28:55;101036.72;;;21.40;78.36
75460;BME280;64039;53.060;9.342;2023-07-13T10:31:22;101032.00;;;21.55;79.41
75460;BME280;64039;53.060;9.342;2023-07-13T10:33:49;101036.19;;;21.23;69.13
75460;BME280;64039;53.060;9.342;2023-07-13T10:36:23;101028.59;;;21.04;70.48
75460;BME280;64039;53.060;9.342;2023-07-13T10:38:54;101035.47;;;21.14;70.62
75460;BME280;64039;53.060;9.342;2023-07-13T10:41:23;101029.81;;;20.84;68.57
75460;BME280;64039;53.060;9.342;2023-07-13T10:43:51;101036.00;;;21.30;72.45
75460;BME280;64039;53.060;9.342;2023-07-13T10:46:21;101038.13;;;21.57;70.27
75460;BME280;64039;53.060;9.342;2023-07-13T10:48:50;101030.28;;;21.52;67.65
75460;BME280;64039;53.060;9.342;2023-07-13T10:51:19;101028.63;;;21.45;68.09
75460;BME280;64039;53.060;9.342;2023-07-13T10:56:38;101035.50;;;21.57;67.62
75460;BME280;64039;53.060;9.342;2023-07-13T10:59:14;101032.88;;;21.54;67.92
75460;BME280;64039;53.060;9.342;2023-07-13T11:01:50;101036.19;;;21.21;68.32
75460;BME280;64039;53.060;9.342;2023-07-13T11:04:19;101037.91;;;21.24;69.81
75460;BME280;64039;53.060;9.342;2023-07-13T11:06:48;101040.44;;;21.30;69.39
75460;BME280;64039;53.060;9.342;2023-07-13T11:09:37;101039.97;;;21.53;69.00
75460;BME280;64039;53.060;9.342;2023-07-13T11:12:49;101034.97;;;21.39;69.06
75460;BME280;64039;53.060;9.342;2023-07-13T11:15:27;101042.25;;;21.28;68.61
75460;BME280;64039;53.060;9.342;2023-07-13T11:17:55;101034.56;;;21.14;67.70
75460;BME280;64039;53.060;9.342;2023-07-13T11:20:37;101030.38;;;21.46;68.30
75460;BME280;64039;53.060;9.342;2023-07-13T11:23:08;101036.19;;;21.66;67.29
75460;BME280;64039;53.060;9.342;2023-07-13T11:25:36;101034.09;;;21.82;67.08
75460;BME280;64039;53.060;9.342;2023-07-13T11:28:15;101033.84;;;21.51;66.67
75460;BME280;64039;53.060;9.342;2023-07-13T11:33:46;101080.66;;;21.02;70.62
75460;BME280;64039;53.060;9.342;2023-07-13T11:36:19;101103.91;;;20.25;76.87
75460;BME280;64039;53.060;9.342;2023-07-13T11:39:19;101110.44;;;19.20;84.50
75460;BME280;64039;53.060;9.342;2023-07-13T11:41:52;101121.88;;;17.77;89.92
75460;BME280;64039;53.060;9.342;2023-07-13T11:44:20;101136.91;;;16.74;100.00
75460;BME280;64039;53.060;9.342;2023-07-13T11:46:51;101141.16;;;16.12;100.00
75460;BME280;64039;53.060;9.342;2023-07-13T11:49:25;101151.47;;;15.76;100.00
75460;BME280;64039;53.060;9.342;2023-07-13T11:51:52;101153.78;;;15.22;100.00
75460;BME280;64039;53.060;9.342;2023-07-13T11:56:56;101163.84;;;14.72;100.00
75460;BME280;64039;53.060;9.342;2023-07-13T11:59:23;101161.38;;;14.91;100.00
75460;BME280;64039;53.060;9.342;2023-07-13T12:01:52;101147.28;;;14.75;100.00
75460;BME280;64039;53.060;9.342;2023-07-13T12:04:23;101154.31;;;14.84;100.00
75460;BME280;64039;53.060;9.342;2023-07-13T12:06:55;101170.25;;;15.08;100.00
75460;BME280;64039;53.060;9.342;2023-07-13T12:09:21;101185.00;;;14.94;100.00
75460;BME280;64039;53.060;9.342;2023-07-13T12:11:51;101177.25;;;15.06;100.00
75460;BME280;64039;53.060;9.342;2023-07-13T12:14:17;101171.91;;;14.96;100.00
75460;BME280;64039;53.060;9.342;2023-07-13T12:16:45;101185.84;;;14.93;100.00
75460;BME280;64039;53.060;9.342;2023-07-13T12:19:22;101176.81;;;14.65;100.00
75460;BME280;64039;53.060;9.342;2023-07-13T12:21:50;101183.00;;;14.70;100.00
75460;BME280;64039;53.060;9.342;2023-07-13T12:24:19;101190.09;;;14.77;100.00
75460;BME280;64039;53.060;9.342;2023-07-13T12:26:52;101201.53;;;14.85;100.00
75460;BME280;64039;53.060;9.342;2023-07-13T12:29:18;101198.81;;;14.77;100.00
75460;BME280;64039;53.060;9.342;2023-07-13T12:31:46;101214.50;;;14.71;100.00
75460;BME280;64039;53.060;9.342;2023-07-13T12:34:15;101231.06;;;14.73;100.00
75460;BME280;64039;53.060;9.342;2023-07-13T12:36:59;101225.47;;;14.42;100.00
75460;BME280;64039;53.060;9.342;2023-07-13T12:39:35;101225.03;;;14.07;100.00
75460;BME280;64039;53.060;9.342;2023-07-13T12:42:26;101227.72;;;14.10;100.00
75460;BME280;64039;53.060;9.342;2023-07-13T12:47:47;101222.31;;;13.99;100.00
75460;BME280;64039;53.060;9.342;2023-07-13T12:50:18;101223.34;;;14.10;100.00
75460;BME280;64039;53.060;9.342;2023-07-13T12:52:50;101236.63;;;14.26;100.00
75460;BME280;64039;53.060;9.342;2023-07-13T12:55:20;101235.16;;;14.48;100.00
75460;BME280;64039;53.060;9.342;2023-07-13T12:57:55;101244.84;;;14.55;100.00
75460;BME280;64039;53.060;9.342;2023-07-13T13:00:36;101228.44;;;14.69;100.00
75460;BME280;64039;53.060;9.342;2023-07-13T13:03:07;101235.50;;;14.76;100.00
75460;BME280;64039;53.060;9.342;2023-07-13T13:05:38;101228.84;;;15.12;100.00
75460;BME280;64039;53.060;9.342;2023-07-13T13:08:05;101223.59;;;15.09;100.00
75460;BME280;64039;53.060;9.342;2023-07-13T13:10:30;101223.72;;;15.24;100.00
75460;BME280;64039;53.060;9.342;2023-07-13T13:12:55;101230.72;;;15.27;100.00